Time;durP1;ratioP1;P1;durP2;ratioP2;P2;SDS_P1;SDS_P2;PMS_P1;PMS_P2;Temp;Humidity;BMP_temperature;BMP_pressure;BME280_temperature;BME280_humidity;BME280_pressure;Samples;Min_cycle;Max_cycle;Signal;HPM_P1;HPM_P2
2021/07/25 00:02:25;;;;;;;10.07;2.42;;;38.50;31.20;;;;;;5100489;27;20440;-64
2021/07/25 00:04:51;;;;;;;13.20;2.80;;;38.40;32.30;;;;;;5104801;27;20088;-62
2021/07/25 00:07:18;;;;;;;7.65;2.75;;;38.30;32.70;;;;;;5107500;28;20079;-63
2021/07/25 00:09:44;;;;;;;17.08;7.22;;;38.20;33.50;;;;;;5107154;27;20210;-67
2021/07/25 00:12:12;;;;;;;16.02;2.72;;;38.10;33.10;;;;;;5109986;28;20076;-66
2021/07/25 00:14:38;;;;;;;12.25;2.83;;;38.10;34.10;;;;;;5101675;28;20463;-67
2021/07/25 00:17:05;;;;;;;7.65;2.25;;;38.00;34.60;;;;;;5107410;28;20072;-66
2021/07/25 00:19:31;;;;;;;10.10;2.60;;;37.90;34.60;;;;;;5108642;27;20068;-67
2021/07/25 00:21:58;;;;;;;10.00;2.63;;;38.00;35.10;;;;;;5109049;28;20515;-68
2021/07/25 00:24:30;;;;;;;12.93;3.33;;;37.90;35.10;;;;;;5106199;28;20080;-67
2021/07/25 00:26:59;;;;;;;10.80;2.90;;;37.80;35.10;;;;;;5105889;27;20099;-67
2021/07/25 00:29:30;;;;;;;6.50;3.10;;;37.70;34.90;;;;;;5102415;27;20570;-66
2021/07/25 00:32:08;;;;;;;11.02;2.75;;;37.80;36.40;;;;;;5109553;27;20078;-65
2021/07/25 00:34:35;;;;;;;14.57;2.80;;;37.70;36.00;;;;;;5109470;28;20068;-66
2021/07/25 00:37:02;;;;;;;11.65;4.22;;;37.70;34.80;;;;;;5109308;27;20076;-66
2021/07/25 00:39:30;;;;;;;13.60;3.40;;;37.70;35.30;;;;;;5105321;28;20156;-65
2021/07/25 00:41:57;;;;;;;9.55;3.17;;;37.80;35.40;;;;;;5105456;28;20089;-67
2021/07/25 00:44:23;;;;;;;15.48;2.90;;;37.80;35.20;;;;;;5106453;27;20133;-66
2021/07/25 00:46:57;;;;;;;9.30;2.78;;;37.70;35.40;;;;;;5110128;28;20444;-65
2021/07/25 00:49:24;;;;;;;8.55;3.28;;;37.60;36.00;;;;;;5107119;27;20525;-65
2021/07/25 00:51:51;;;;;;;12.35;2.55;;;37.60;36.10;;;;;;5108658;27;20065;-65
2021/07/25 00:54:19;;;;;;;13.05;3.13;;;37.50;36.40;;;;;;5109672;27;20099;-66
2021/07/25 00:56:46;;;;;;;9.25;3.05;;;37.40;36.40;;;;;;5107456;27;20598;-65
2021/07/25 00:59:13;;;;;;;9.07;2.70;;;37.30;36.60;;;;;;5104178;27;20084;-65
2021/07/25 01:01:39;;;;;;;12.10;3.65;;;37.30;37.00;;;;;;5106895;28;20111;-65
2021/07/25 01:04:33;;;;;;;10.32;3.50;;;37.20;36.80;;;;;;5110606;27;20163;-65
2021/07/25 01:07:31;;;;;;;16.25;3.28;;;37.10;36.90;;;;;;5109218;28;20076;-65
2021/07/25 01:10:15;;;;;;;14.27;3.97;;;37.00;36.60;;;;;;5110925;28;20087;-66
2021/07/25 01:12:45;;;;;;;8.75;3.90;;;37.00;36.10;;;;;;5107001;28;20080;-66
2021/07/25 01:15:19;;;;;;;11.18;3.55;;;37.10;36.30;;;;;;5108262;28;20073;-66
2021/07/25 01:17:45;;;;;;;9.85;3.63;;;37.10;36.00;;;;;;5112547;28;20079;-66
2021/07/25 01:20:15;;;;;;;11.18;3.05;;;37.10;36.20;;;;;;5109731;27;20114;-66
2021/07/25 01:22:49;;;;;;;12.10;3.08;;;37.00;36.20;;;;;;5106537;28;20440;-66
2021/07/25 01:25:19;;;;;;;16.50;3.30;;;37.00;36.20;;;;;;5096676;28;20166;-66
2021/07/25 01:27:50;;;;;;;12.02;3.25;;;37.00;36.60;;;;;;5095900;28;20107;-68
2021/07/25 01:30:20;;;;;;;14.70;3.92;;;37.00;35.50;;;;;;5104016;28;20114;-66
2021/07/25 01:32:49;;;;;;;15.65;3.20;;;36.90;33.70;;;;;;5104369;28;20121;-66
2021/07/25 01:35:16;;;;;;;16.67;3.22;;;37.00;33.20;;;;;;5102374;28;20076;-65
2021/07/25 01:37:43;;;;;;;13.70;3.55;;;36.90;32.90;;;;;;5103839;28;20559;-65
2021/07/25 01:40:20;;;;;;;12.18;3.60;;;36.90;33.40;;;;;;5105334;28;20883;-66
2021/07/25 01:42:46;;;;;;;13.25;3.63;;;36.90;34.10;;;;;;5096461;28;20211;-66
2021/07/25 01:45:14;;;;;;;20.98;5.68;;;36.90;40.70;;;;;;5101803;28;20079;-66
2021/07/25 01:47:41;;;;;;;21.98;5.50;;;36.80;42.70;;;;;;5104227;28;21465;-65
2021/07/25 01:50:08;;;;;;;21.17;5.45;;;36.70;43.20;;;;;;5101790;28;20069;-65
2021/07/25 01:52:35;;;;;;;15.68;4.00;;;36.70;43.50;;;;;;5099911;28;20072;-66
2021/07/25 01:55:02;;;;;;;20.98;4.47;;;36.60;43.30;;;;;;5102451;28;20087;-66
2021/07/25 01:57:29;;;;;;;21.95;4.40;;;36.50;43.60;;;;;;5105661;28;20539;-65
2021/07/25 01:59:55;;;;;;;15.68;3.88;;;36.50;43.50;;;;;;5103910;28;20214;-65
2021/07/25 02:02:22;;;;;;;15.10;3.42;;;36.40;44.30;;;;;;5104521;28;20075;-66
2021/07/25 02:04:48;;;;;;;24.17;4.00;;;36.40;45.50;;;;;;5100604;28;20158;-66
2021/07/25 02:07:15;;;;;;;13.73;3.63;;;36.30;45.80;;;;;;5107572;28;20076;-66
2021/07/25 02:09:42;;;;;;;21.58;3.97;;;36.30;46.40;;;;;;5107475;28;20112;-65
2021/07/25 02:12:10;;;;;;;21.75;4.78;;;36.20;46.60;;;;;;5079968;28;20096;-65
2021/07/25 02:14:38;;;;;;;14.48;3.40;;;36.20;47.20;;;;;;5102736;28;20076;-66
2021/07/25 02:17:07;;;;;;;23.10;4.20;;;36.10;46.90;;;;;;5106066;28;20076;-65
2021/07/25 02:19:33;;;;;;;17.42;4.57;;;36.10;47.40;;;;;;5100926;28;20153;-66
2021/07/25 02:22:00;;;;;;;28.92;5.65;;;36.00;47.80;;;;;;5101265;28;20184;-66
2021/07/25 02:24:27;;;;;;;31.25;9.77;;;35.90;48.60;;;;;;5100634;28;20098;-66
2021/07/25 02:26:53;;;;;;;29.38;9.90;;;35.90;48.20;;;;;;5100279;28;20175;-65
2021/07/25 02:29:20;;;;;;;23.25;8.35;;;35.80;48.50;;;;;;5093740;28;20108;-67
2021/07/25 02:31:47;;;;;;;19.13;5.40;;;35.70;48.70;;;;;;5103723;28;20075;-66
2021/07/25 02:34:21;;;;;;;17.25;4.30;;;35.70;49.20;;;;;;5098438;28;20170;-65
2021/07/25 02:36:49;;;;;;;22.30;4.90;;;35.60;49.80;;;;;;5102424;28;20072;-66
2021/07/25 02:39:15;;;;;;;24.05;4.35;;;35.50;50.00;;;;;;5103112;28;20080;-66
2021/07/25 02:41:42;;;;;;;18.15;3.78;;;35.50;49.70;;;;;;5102682;28;20124;-66
2021/07/25 02:44:08;;;;;;;13.63;3.58;;;35.40;49.60;;;;;;5099545;27;20068;-66
2021/07/25 02:46:35;;;;;;;13.38;2.92;;;35.20;49.70;;;;;;5109704;27;20080;-66
2021/07/25 02:49:02;;;;;;;16.27;2.92;;;35.20;50.20;;;;;;5102944;27;20073;-65
2021/07/25 02:51:30;;;;;;;13.20;2.90;;;35.20;49.50;;;;;;5103357;28;20084;-66
2021/07/25 02:53:56;;;;;;;15.50;2.92;;;35.20;49.70;;;;;;5097451;27;20095;-66
2021/07/25 02:56:26;;;;;;;16.83;2.90;;;35.20;49.40;;;;;;5102408;27;20079;-67
2021/07/25 02:58:52;;;;;;;13.00;2.92;;;35.10;49.20;;;;;;5099936;28;20134;-67
2021/07/25 03:01:19;;;;;;;16.65;2.83;;;35.00;49.60;;;;;;5108317;27;20123;-66
2021/07/25 03:03:46;;;;;;;15.98;2.78;;;34.90;49.60;;;;;;5105932;27;20429;-66
2021/07/25 03:06:12;;;;;;;20.33;2.78;;;34.90;49.90;;;;;;5099475;27;20084;-66
2021/07/25 03:08:39;;;;;;;28.20;3.17;;;34.90;49.80;;;;;;5105245;27;20069;-68
2021/07/25 03:11:10;;;;;;;23.75;2.70;;;34.80;49.70;;;;;;5106223;27;20091;-66
2021/07/25 03:13:37;;;;;;;13.98;4.22;;;34.80;49.50;;;;;;5082378;28;20064;-66
2021/07/25 03:16:05;;;;;;;16.92;3.83;;;34.70;49.40;;;;;;5109742;27;20072;-67
2021/07/25 03:18:33;;;;;;;21.70;4.20;;;34.70;49.40;;;;;;5105093;27;20068;-66
2021/07/25 03:21:00;;;;;;;18.08;4.70;;;34.70;49.40;;;;;;5110372;27;20092;-66
2021/07/25 03:23:27;;;;;;;17.77;5.22;;;34.60;49.60;;;;;;5104601;27;20076;-67
2021/07/25 03:25:54;;;;;;;20.05;4.93;;;34.50;50.10;;;;;;5105724;27;20104;-66
2021/07/25 03:28:21;;;;;;;41.53;6.22;;;34.50;50.50;;;;;;5105697;27;20076;-66
2021/07/25 03:30:47;;;;;;;11.18;4.00;;;34.40;50.80;;;;;;5097316;27;20190;-65
2021/07/25 03:33:14;;;;;;;12.70;4.28;;;34.30;51.20;;;;;;5105335;27;20168;-65
2021/07/25 03:35:44;;;;;;;22.98;4.78;;;34.30;51.40;;;;;;5105346;27;20076;-65
2021/07/25 03:38:12;;;;;;;29.85;4.78;;;34.30;51.70;;;;;;5103869;27;20068;-66
2021/07/25 03:40:42;;;;;;;20.23;5.18;;;34.30;51.80;;;;;;5104959;27;20102;-66
2021/07/25 03:43:09;;;;;;;24.42;4.80;;;34.20;51.90;;;;;;5111390;27;20151;-65
2021/07/25 03:45:47;;;;;;;25.35;5.43;;;34.20;51.90;;;;;;5106019;27;20089;-66
2021/07/25 03:48:15;;;;;;;22.23;5.40;;;34.20;51.90;;;;;;5105211;27;20087;-66
2021/07/25 03:50:42;;;;;;;19.23;5.18;;;34.20;51.70;;;;;;5109339;28;20080;-65
2021/07/25 03:53:09;;;;;;;22.20;4.47;;;34.20;51.90;;;;;;5103613;28;20159;-65
2021/07/25 03:55:37;;;;;;;21.88;3.92;;;34.00;52.00;;;;;;5106599;27;20674;-66
2021/07/25 03:58:04;;;;;;;16.63;3.30;;;34.00;51.90;;;;;;5107552;27;20076;-65
2021/07/25 04:00:31;;;;;;;17.70;2.88;;;34.00;51.60;;;;;;5105853;27;20096;-66
2021/07/25 04:02:58;;;;;;;16.20;2.97;;;33.90;51.40;;;;;;5107169;27;20072;-67
2021/07/25 04:05:25;;;;;;;26.25;3.72;;;33.90;51.60;;;;;;5103716;27;20653;-66
2021/07/25 04:07:51;;;;;;;19.67;3.85;;;33.90;51.40;;;;;;5103746;28;20159;-66
2021/07/25 04:10:18;;;;;;;15.98;3.20;;;33.80;51.40;;;;;;5109461;28;20076;-65
2021/07/25 04:12:44;;;;;;;12.18;3.25;;;33.80;51.50;;;;;;5106561;27;20157;-65
2021/07/25 04:15:11;;;;;;;20.55;4.75;;;33.80;52.50;;;;;;5103719;27;20077;-66
2021/07/25 04:17:38;;;;;;;22.90;4.82;;;33.70;51.90;;;;;;5105639;27;20080;-65
2021/07/25 04:20:05;;;;;;;27.17;3.45;;;33.70;52.00;;;;;;5101103;27;20092;-66
2021/07/25 04:22:36;;;;;;;16.95;2.72;;;33.70;52.20;;;;;;5105261;27;20527;-65
2021/07/25 04:25:04;;;;;;;21.15;3.28;;;33.70;51.80;;;;;;5105355;28;20068;-67
2021/07/25 04:27:32;;;;;;;11.88;2.92;;;33.60;51.70;;;;;;5105191;27;20084;-66
2021/07/25 04:29:59;;;;;;;19.20;3.22;;;33.60;51.60;;;;;;5105413;27;20109;-66
2021/07/25 04:32:26;;;;;;;15.10;2.75;;;33.60;51.80;;;;;;5108784;27;20080;-65
2021/07/25 04:34:53;;;;;;;14.95;3.25;;;33.50;51.80;;;;;;5103905;28;20151;-66
2021/07/25 04:37:30;;;;;;;16.80;3.10;;;33.50;51.80;;;;;;5102662;27;20085;-65
2021/07/25 04:39:57;;;;;;;13.43;3.08;;;33.50;52.00;;;;;;5104131;27;20092;-64
2021/07/25 04:42:25;;;;;;;16.63;3.22;;;33.50;52.20;;;;;;5104730;27;20083;-65
2021/07/25 04:45:06;;;;;;;14.02;2.95;;;33.50;52.50;;;;;;5107543;28;20087;-66
2021/07/25 04:47:44;;;;;;;18.98;3.25;;;33.40;52.50;;;;;;5104721;27;20079;-65
2021/07/25 04:50:19;;;;;;;14.43;2.83;;;33.40;52.80;;;;;;5104600;27;20111;-66
2021/07/25 04:52:53;;;;;;;9.38;2.70;;;33.30;53.30;;;;;;5107916;27;20064;-66
2021/07/25 04:55:25;;;;;;;9.82;2.25;;;33.30;53.40;;;;;;5105065;27;20509;-64
2021/07/25 04:58:03;;;;;;;21.25;3.15;;;33.30;53.30;;;;;;5102311;27;20150;-66
2021/07/25 05:00:31;;;;;;;14.55;2.65;;;33.20;52.50;;;;;;5106835;28;20448;-65
2021/07/25 05:03:05;;;;;;;13.30;2.67;;;33.10;51.70;;;;;;5104500;28;20135;-64
2021/07/25 05:05:32;;;;;;;17.27;2.85;;;33.20;51.20;;;;;;5106259;28;20087;-65
2021/07/25 05:08:02;;;;;;;10.68;2.45;;;33.10;49.40;;;;;;5098928;28;20068;-64
2021/07/25 05:10:30;;;;;;;14.65;3.13;;;33.20;49.30;;;;;;5106343;28;20719;-69
2021/07/25 05:13:04;;;;;;;9.40;2.60;;;33.20;49.10;;;;;;5102421;28;20076;-65
2021/07/25 05:15:39;;;;;;;10.68;2.70;;;33.10;48.70;;;;;;5104683;27;20162;-65
2021/07/25 05:18:08;;;;;;;12.63;3.08;;;33.10;48.00;;;;;;5105193;27;20513;-65
2021/07/25 05:21:07;;;;;;;8.80;2.55;;;33.10;48.40;;;;;;5105995;27;20100;-66
2021/07/25 05:23:45;;;;;;;9.75;2.67;;;33.00;49.30;;;;;;5102642;27;20137;-65
2021/07/25 05:26:13;;;;;;;14.27;2.50;;;33.00;50.10;;;;;;5097160;28;20077;-65
2021/07/25 05:28:41;;;;;;;12.43;2.53;;;32.90;50.30;;;;;;5101757;28;20080;-66
2021/07/25 05:31:09;;;;;;;9.23;2.50;;;32.80;50.10;;;;;;5098448;28;20179;-66
2021/07/25 05:33:36;;;;;;;11.88;2.42;;;32.80;50.50;;;;;;5107141;28;20196;-66
2021/07/25 05:36:02;;;;;;;7.38;2.20;;;32.80;50.70;;;;;;5105946;28;20094;-65
2021/07/25 05:38:29;;;;;;;14.23;2.90;;;32.80;50.70;;;;;;5107744;28;20560;-66
2021/07/25 05:40:55;;;;;;;12.27;2.50;;;32.80;51.10;;;;;;5108564;28;20539;-65
2021/07/25 05:43:22;;;;;;;12.18;2.63;;;32.80;51.50;;;;;;5104794;28;20088;-66
2021/07/25 05:45:48;;;;;;;9.13;2.50;;;32.70;52.20;;;;;;5107220;28;20079;-65
2021/07/25 05:48:15;;;;;;;10.48;2.67;;;32.70;52.80;;;;;;5102810;28;20334;-63
2021/07/25 05:50:41;;;;;;;10.93;2.70;;;32.70;53.40;;;;;;5101696;28;20080;-64
2021/07/25 05:53:08;;;;;;;10.93;2.70;;;32.70;53.40;;;;;;5104659;28;20085;-64
2021/07/25 05:55:34;;;;;;;9.27;3.13;;;32.60;55.40;;;;;;5098168;28;20164;-64
2021/07/25 05:58:01;;;;;;;12.75;2.88;;;32.60;55.60;;;;;;5101687;27;20077;-65
2021/07/25 06:00:28;;;;;;;11.57;3.00;;;32.60;56.20;;;;;;5107451;28;20092;-65
2021/07/25 06:03:04;;;;;;;14.85;2.78;;;32.50;56.30;;;;;;5108716;28;20068;-65
2021/07/25 06:05:35;;;;;;;12.68;2.72;;;32.40;57.00;;;;;;5100571;28;20088;-65
2021/07/25 06:08:04;;;;;;;9.98;2.75;;;32.40;57.70;;;;;;5106923;28;20076;-64
2021/07/25 06:10:31;;;;;;;14.70;3.25;;;32.40;58.70;;;;;;5106269;28;20085;-64
2021/07/25 06:13:00;;;;;;;11.85;3.10;;;32.30;59.70;;;;;;5103847;28;20421;-65
2021/07/25 06:15:28;;;;;;;16.55;3.33;;;32.20;61.60;;;;;;5108386;28;20080;-65
2021/07/25 06:17:55;;;;;;;14.80;3.35;;;32.20;63.60;;;;;;5104821;28;20261;-64
2021/07/25 06:20:22;;;;;;;12.93;3.25;;;32.20;65.30;;;;;;5103756;27;20100;-65
2021/07/25 06:22:53;;;;;;;17.10;3.00;;;32.10;67.00;;;;;;5108886;28;20534;-63
2021/07/25 06:25:22;;;;;;;24.08;3.65;;;32.10;68.50;;;;;;5109349;28;20087;-62
2021/07/25 06:27:53;;;;;;;20.95;3.65;;;32.10;69.10;;;;;;5109049;27;20088;-63
2021/07/25 06:30:22;;;;;;;18.00;3.83;;;32.10;70.00;;;;;;5112520;27;20108;-64
2021/07/25 06:32:58;;;;;;;18.15;3.83;;;32.10;70.90;;;;;;5113338;27;20163;-64
2021/07/25 06:35:24;;;;;;;;;;;;;;;;;;5113442;27;20020;-63
2021/07/25 06:37:51;;;;;;;20.53;3.63;;;;;;;;;;5111369;27;19915;-61
2021/07/25 06:40:18;;;;;;;19.13;3.90;;;;;;;;;;5103853;27;20299;-62
2021/07/25 06:42:45;;;;;;;26.38;4.40;;;;;;;;;;5108630;27;20027;-64
2021/07/25 06:45:12;;;;;;;19.88;3.25;;;;;;;;;;5103158;28;20026;-62
2021/07/25 06:47:38;;;;;;;20.30;3.78;;;;;;;;;;5109325;27;20016;-63
2021/07/25 06:50:05;;;;;;;19.88;4.00;;;;;;;;;;5108881;27;21680;-61
2021/07/25 06:52:32;;;;;;;17.85;4.18;;;32.20;94.20;;;;;;5108424;27;20039;-62
2021/07/25 06:54:58;;;;;;;21.23;4.35;;;;;;;;;;5109109;27;20024;-63
2021/07/25 06:57:25;;;;;;;17.35;3.25;;;;;;;;;;5109780;27;21485;-63
2021/07/25 06:59:52;;;;;;;23.30;4.30;;;;;;;;;;5102933;27;20028;-63
2021/07/25 07:02:18;;;;;;;17.58;4.25;;;;;;;;;;5102547;28;20034;-63
2021/07/25 07:04:45;;;;;;;26.92;5.05;;;;;;;;;;5110933;27;20047;-63
2021/07/25 07:07:11;;;;;;;17.33;5.38;;;;;;;;;;5102871;27;20024;-61
